To NAV CANADA Home Page Login to a new session Search on AWWS site Disclaimer Vers la page française équivalente Tips FAQ What's new on the site To the Forecasts and Observations / NOTAM section To "File a Flight Plan" website Publications and other links Update of the User's profile FIC Telephone Numbers My Weather Data Folder Route Weather Data Regional Weather Data Local Weather Data To the Forecasts and Observations / NOTAM section
Request Generated 10/21/2018 at 06:21:59 UTC . Weather information available at that time is displayed.

METAR/TAF

YARMOUTH/NS    

METAR CYQI 210600Z 29006KT 15SM SCT250 10/10 A2954 RMK CI3 SLP004=
METAR CYQI 210500Z 26007KT 15SM FEW075 11/10 A2952 RMK AC2 SLP000=
METAR CYQI 210400Z 26007KT 15SM SCT075 11/10 A2952 RMK AC3 SLP999=

TAF CYQI 210539Z 2106/2118 26008KT P6SM FEW070 PROB30 2106/2109 1SM
BR BKN004
FM210900 36010KT P6SM FEW020 FEW100
FM211200 36012G22KT P6SM BKN060
BECMG 2116/2118 34015G25KT
RMK NXT FCST BY 211200Z=
Your time UTC time
Weather data provided by Environment Canada and NAV CANADA